createdAt,value
2022-12-24T00:02:10.738Z,11.20
2022-12-24T00:05:12.439Z,10.30
2022-12-24T00:08:14.029Z,11.40
2022-12-24T00:11:15.603Z,11.20
2022-12-24T00:14:17.159Z,11.20
2022-12-24T00:17:18.951Z,11.20
2022-12-24T00:20:20.478Z,10.90
2022-12-24T00:23:22.046Z,11.00
2022-12-24T00:26:23.602Z,12.40
2022-12-24T00:29:25.230Z,11.20
2022-12-24T00:32:26.773Z,10.80
2022-12-24T00:35:28.335Z,11.20
2022-12-24T00:38:29.890Z,11.10
2022-12-24T00:41:31.601Z,10.90
2022-12-24T00:44:33.126Z,10.70
2022-12-24T00:47:34.677Z,11.20
2022-12-24T00:50:36.230Z,11.20
2022-12-24T00:53:37.798Z,11.00
2022-12-24T00:56:39.336Z,11.10
2022-12-24T00:59:40.867Z,11.00
2022-12-24T01:02:42.608Z,11.00
2022-12-24T01:05:44.238Z,11.30
2022-12-24T01:08:46.043Z,10.90
2022-12-24T01:11:47.616Z,10.60
2022-12-24T01:14:49.249Z,11.00
2022-12-24T01:17:50.816Z,11.00
2022-12-24T01:20:57.407Z,10.70
2022-12-24T01:23:59.050Z,10.90
2022-12-24T01:27:00.636Z,10.60
2022-12-24T01:30:02.363Z,10.40
2022-12-24T01:33:03.962Z,10.40
2022-12-24T01:36:05.868Z,10.60
2022-12-24T01:39:07.402Z,11.20
2022-12-24T01:42:45.356Z,10.50
2022-12-24T01:45:49.793Z,10.70
2022-12-24T01:49:06.553Z,10.70
2022-12-24T01:52:14.757Z,10.50
2022-12-24T01:55:18.493Z,10.30
2022-12-24T01:58:22.525Z,10.40
2022-12-24T02:01:24.645Z,10.30
2022-12-24T02:04:37.391Z,10.50
2022-12-24T02:07:39.546Z,10.40
2022-12-24T02:10:41.336Z,10.40
2022-12-24T02:13:47.261Z,10.20
2022-12-24T02:17:13.250Z,10.00
2022-12-24T02:20:26.583Z,10.20
2022-12-24T02:24:02.238Z,10.00
2022-12-24T02:27:28.500Z,10.40
2022-12-24T02:30:48.667Z,10.10
2022-12-24T02:33:59.512Z,10.30
2022-12-24T02:37:06.603Z,10.10
2022-12-24T02:40:17.048Z,10.50
2022-12-24T02:43:24.194Z,10.30
2022-12-24T02:46:30.158Z,10.10
2022-12-24T02:49:31.787Z,10.30
2022-12-24T02:52:42.192Z,10.50
2022-12-24T02:55:59.849Z,9.90
2022-12-24T02:59:28.446Z,10.40
2022-12-24T03:03:08.103Z,10.40
2022-12-24T03:06:15.777Z,10.40
2022-12-24T03:09:50.281Z,10.50
2022-12-24T03:12:55.595Z,10.20
2022-12-24T03:15:57.278Z,10.10
2022-12-24T03:19:02.917Z,10.30
2022-12-24T03:22:09.495Z,10.10
2022-12-24T03:25:11.026Z,10.20
2022-12-24T03:28:15.220Z,10.40
2022-12-24T03:31:18.595Z,10.30
2022-12-24T03:34:20.259Z,12.50
2022-12-24T03:37:22.035Z,11.00
2022-12-24T03:40:23.607Z,10.30
2022-12-24T03:43:25.278Z,9.90
2022-12-24T03:46:26.941Z,10.20
2022-12-24T03:49:28.626Z,10.40
2022-12-24T03:52:30.222Z,10.40
2022-12-24T03:55:31.809Z,10.10
2022-12-24T03:58:33.383Z,10.20
2022-12-24T04:01:35.094Z,10.40
2022-12-24T04:04:37.678Z,10.30
2022-12-24T04:07:39.288Z,10.00
2022-12-24T04:10:40.829Z,10.30
2022-12-24T04:13:42.928Z,10.10
2022-12-24T04:16:44.581Z,10.40
2022-12-24T04:19:46.183Z,10.30
2022-12-24T04:22:47.715Z,10.00
2022-12-24T04:25:49.318Z,10.40
2022-12-24T04:28:57.383Z,10.50
2022-12-24T04:31:59.004Z,10.30
2022-12-24T04:35:00.586Z,10.30
2022-12-24T04:38:02.127Z,10.30
2022-12-24T04:41:05.431Z,10.30
2022-12-24T04:44:07.016Z,10.30
2022-12-24T04:47:08.627Z,10.30
2022-12-24T04:50:10.850Z,10.50
2022-12-24T04:53:14.830Z,10.50
2022-12-24T04:56:19.372Z,10.20
2022-12-24T04:59:20.933Z,10.80
2022-12-24T05:02:22.597Z,10.30
2022-12-24T05:05:24.211Z,10.30
2022-12-24T05:08:25.733Z,10.30
2022-12-24T05:11:28.080Z,10.60
2022-12-24T05:14:29.637Z,10.60
2022-12-24T05:17:31.229Z,10.20
2022-12-24T05:20:32.810Z,10.80
2022-12-24T05:23:53.065Z,10.50
2022-12-24T05:26:57.262Z,11.20
2022-12-24T05:29:58.785Z,10.30
2022-12-24T05:33:00.326Z,11.00
2022-12-24T05:36:01.851Z,10.50
2022-12-24T05:39:06.279Z,10.50
2022-12-24T05:42:11.559Z,10.20
2022-12-24T05:45:13.123Z,10.50
2022-12-24T05:48:14.644Z,10.50
2022-12-24T05:51:22.045Z,10.50
2022-12-24T05:54:23.699Z,10.50
2022-12-24T05:57:25.435Z,10.50
2022-12-24T06:00:27.524Z,10.30
2022-12-24T06:03:29.818Z,10.40
2022-12-24T06:06:31.470Z,10.50
2022-12-24T06:09:33.279Z,10.40
2022-12-24T06:12:35.272Z,10.50
2022-12-24T06:15:36.981Z,10.50
2022-12-24T06:18:40.010Z,11.30
2022-12-24T06:21:41.594Z,10.30
2022-12-24T06:24:43.192Z,10.40
2022-12-24T06:27:44.718Z,10.90
2022-12-24T06:30:48.531Z,10.10
2022-12-24T06:33:51.150Z,10.40
2022-12-24T06:36:52.694Z,10.60
2022-12-24T06:39:54.243Z,10.70
2022-12-24T06:42:55.873Z,10.20
2022-12-24T06:45:57.500Z,10.90
2022-12-24T06:49:00.480Z,10.80
2022-12-24T06:52:02.026Z,10.40
2022-12-24T06:55:04.219Z,10.40
2022-12-24T06:58:05.963Z,10.40
2022-12-24T07:01:10.523Z,10.10
2022-12-24T07:04:19.703Z,10.40
2022-12-24T07:07:21.815Z,10.30
2022-12-24T07:10:23.417Z,10.50
2022-12-24T07:13:24.929Z,10.20
2022-12-24T07:16:26.589Z,10.60
2022-12-24T07:19:28.230Z,12.80
2022-12-24T07:22:29.797Z,10.30
2022-12-24T07:25:31.368Z,10.80
2022-12-24T07:28:33.671Z,10.60
2022-12-24T07:31:35.257Z,10.40
2022-12-24T07:34:37.087Z,10.70
2022-12-24T07:37:38.683Z,10.50
2022-12-24T07:40:40.273Z,10.40
2022-12-24T07:43:41.913Z,10.30
2022-12-24T07:46:44.434Z,10.60
2022-12-24T07:49:46.255Z,10.70
2022-12-24T07:52:47.862Z,10.30
2022-12-24T07:55:49.714Z,10.50
2022-12-24T07:58:52.114Z,10.50
2022-12-24T08:01:53.852Z,10.30
2022-12-24T08:04:55.701Z,10.30
2022-12-24T08:07:57.221Z,10.50
2022-12-24T08:11:05.809Z,10.10
2022-12-24T08:14:07.593Z,10.20
2022-12-24T08:17:09.119Z,10.50
2022-12-24T08:20:11.593Z,10.30
2022-12-24T08:23:13.280Z,10.30
2022-12-24T08:26:14.956Z,10.50
2022-12-24T08:29:16.570Z,10.30
2022-12-24T08:32:18.550Z,10.30
2022-12-24T08:35:20.554Z,10.00
2022-12-24T08:38:22.739Z,10.10
2022-12-24T08:41:24.391Z,10.30
2022-12-24T08:44:26.095Z,10.30
2022-12-24T08:47:27.638Z,10.30
2022-12-24T08:50:29.290Z,10.30
2022-12-24T08:53:30.823Z,10.50
2022-12-24T08:56:34.362Z,10.20
2022-12-24T08:59:35.893Z,10.10
2022-12-24T09:02:37.588Z,9.80
2022-12-24T09:05:40.233Z,10.30
2022-12-24T09:08:41.874Z,10.30
2022-12-24T09:11:43.470Z,10.20
2022-12-24T09:14:45.031Z,10.00
2022-12-24T09:17:46.965Z,10.40
2022-12-24T09:20:52.412Z,10.50
2022-12-24T09:23:57.200Z,10.50
2022-12-24T09:26:59.199Z,10.30
2022-12-24T09:30:00.846Z,10.10
2022-12-24T09:33:02.465Z,10.40
2022-12-24T09:36:05.520Z,10.60
2022-12-24T09:39:07.304Z,10.60
2022-12-24T09:42:48.772Z,10.90
2022-12-24T09:46:09.144Z,11.00
2022-12-24T09:49:17.117Z,10.70
2022-12-24T09:52:35.335Z,11.00
2022-12-24T09:55:44.078Z,11.00
2022-12-24T09:58:58.376Z,10.80
2022-12-24T10:02:01.204Z,10.80
2022-12-24T10:05:02.850Z,10.70
2022-12-24T10:08:21.727Z,10.80
2022-12-24T10:11:45.570Z,10.60
2022-12-24T10:14:55.657Z,10.90
2022-12-24T10:18:18.540Z,10.90
2022-12-24T10:21:58.000Z,11.20
2022-12-24T10:25:06.397Z,11.30
2022-12-24T10:28:19.004Z,11.30
2022-12-24T10:31:26.501Z,11.30
2022-12-24T10:34:33.428Z,11.40
2022-12-24T10:37:35.031Z,11.40
2022-12-24T10:40:41.644Z,11.60
2022-12-24T10:43:44.896Z,11.30
2022-12-24T10:46:47.661Z,11.10
2022-12-24T10:50:00.916Z,11.60
2022-12-24T10:53:24.544Z,11.50
2022-12-24T10:56:26.059Z,11.50
2022-12-24T10:59:31.225Z,11.50
2022-12-24T11:02:36.192Z,11.80
2022-12-24T11:05:39.254Z,11.00
2022-12-24T11:08:44.941Z,11.30
2022-12-24T11:11:46.533Z,11.40
2022-12-24T11:14:49.322Z,11.30
2022-12-24T11:17:56.676Z,11.40
2022-12-24T11:21:00.768Z,11.50
2022-12-24T11:24:26.312Z,11.30
2022-12-24T11:27:50.621Z,11.70
2022-12-24T11:31:00.249Z,11.50
2022-12-24T11:34:25.233Z,11.40
2022-12-24T11:37:26.918Z,11.70
2022-12-24T11:40:49.140Z,11.80
2022-12-24T11:43:57.742Z,11.40
2022-12-24T11:46:59.398Z,11.30
2022-12-24T11:50:22.308Z,11.70
2022-12-24T11:53:45.041Z,11.40
2022-12-24T11:56:53.555Z,11.60
2022-12-24T11:59:55.146Z,11.80
2022-12-24T12:03:01.309Z,11.90
2022-12-24T12:06:09.056Z,11.80
2022-12-24T12:09:19.118Z,11.50
2022-12-24T12:12:30.264Z,11.50
2022-12-24T12:15:42.390Z,11.30
2022-12-24T12:18:51.797Z,11.50
2022-12-24T12:21:55.277Z,11.70
2022-12-24T12:24:58.890Z,11.40
2022-12-24T12:28:03.284Z,11.70
2022-12-24T12:31:19.346Z,11.40
2022-12-24T12:34:37.461Z,11.70
2022-12-24T12:37:44.384Z,11.40
2022-12-24T12:41:01.450Z,11.60
2022-12-24T12:44:16.018Z,11.60
2022-12-24T12:47:17.487Z,12.40
2022-12-24T12:50:40.563Z,11.20
2022-12-24T12:54:04.516Z,11.50
2022-12-24T12:57:11.337Z,11.50
2022-12-24T13:00:18.610Z,11.40
2022-12-24T13:03:35.321Z,11.70
2022-12-24T13:07:03.105Z,11.60
2022-12-24T13:10:16.492Z,11.70
2022-12-24T13:13:57.748Z,12.00
2022-12-24T13:17:17.356Z,11.80
2022-12-24T13:20:29.599Z,12.30
2022-12-24T13:23:31.462Z,11.80
2022-12-24T13:26:33.553Z,12.00
2022-12-24T13:29:35.055Z,11.50
2022-12-24T13:32:56.135Z,13.20
2022-12-24T13:36:01.146Z,11.30
2022-12-24T13:39:02.709Z,11.50
2022-12-24T13:42:04.365Z,11.10
2022-12-24T13:45:34.202Z,11.30
2022-12-24T13:48:35.901Z,11.20
2022-12-24T13:51:37.443Z,11.30
2022-12-24T13:54:49.533Z,11.50
2022-12-24T13:58:05.432Z,11.40
2022-12-24T14:01:14.946Z,11.50
2022-12-24T14:04:27.884Z,11.90
2022-12-24T14:07:30.031Z,12.50
2022-12-24T14:10:43.886Z,11.30
2022-12-24T14:13:48.207Z,11.50
2022-12-24T14:16:51.435Z,11.70
2022-12-24T14:19:55.923Z,11.60
2022-12-24T14:22:57.894Z,11.30
2022-12-24T14:26:02.289Z,11.50
2022-12-24T14:29:13.413Z,11.30
2022-12-24T14:32:16.713Z,11.20
2022-12-24T14:35:27.325Z,10.70
2022-12-24T14:38:29.650Z,11.50
2022-12-24T14:41:53.262Z,11.00
2022-12-24T14:45:37.467Z,11.50
2022-12-24T14:49:11.513Z,10.90
2022-12-24T14:52:54.661Z,11.00
2022-12-24T14:55:46.290Z,9.50
2022-12-24T14:58:48.376Z,10.90
2022-12-24T15:01:50.097Z,10.90
2022-12-24T15:05:10.242Z,10.60
2022-12-24T15:08:18.372Z,10.70
2022-12-24T15:11:22.993Z,10.80
2022-12-24T15:14:28.360Z,11.20
2022-12-24T15:17:30.093Z,10.90
2022-12-24T15:20:32.463Z,10.90
2022-12-24T15:23:36.554Z,10.60
2022-12-24T15:26:44.900Z,10.60
2022-12-24T15:29:49.113Z,10.40
2022-12-24T15:32:53.191Z,10.40
2022-12-24T15:35:56.570Z,10.40
2022-12-24T15:39:00.809Z,10.10
2022-12-24T15:42:14.962Z,10.50
2022-12-24T15:45:27.294Z,10.60
2022-12-24T15:48:32.491Z,10.40
2022-12-24T15:51:40.117Z,11.10
2022-12-24T15:54:55.459Z,10.10
2022-12-24T15:57:59.043Z,10.40
2022-12-24T16:01:09.810Z,10.10
2022-12-24T16:04:16.744Z,10.20
2022-12-24T16:07:26.691Z,9.80
2022-12-24T16:10:28.264Z,10.00
2022-12-24T16:13:32.292Z,10.20
2022-12-24T16:16:46.129Z,10.20
2022-12-24T16:19:53.245Z,10.00
2022-12-24T16:22:55.099Z,10.10
2022-12-24T16:25:58.970Z,10.00
2022-12-24T16:29:00.872Z,10.00
2022-12-24T16:32:02.407Z,9.50
2022-12-24T16:35:07.820Z,9.90
2022-12-24T16:38:11.097Z,9.70
2022-12-24T16:41:13.057Z,11.00
2022-12-24T16:44:14.577Z,9.90
2022-12-24T16:47:20.321Z,9.80
2022-12-24T16:50:22.033Z,9.90
2022-12-24T16:53:23.948Z,10.90
2022-12-24T16:56:25.510Z,9.80
2022-12-24T16:59:27.079Z,9.90
2022-12-24T17:02:28.771Z,9.60
2022-12-24T17:05:30.551Z,10.00
2022-12-24T17:08:32.204Z,9.60
2022-12-24T17:11:33.921Z,9.80
2022-12-24T17:14:36.157Z,9.80
2022-12-24T17:17:37.995Z,9.90
2022-12-24T17:20:39.529Z,9.70
2022-12-24T17:23:41.897Z,9.80
2022-12-24T17:26:43.715Z,9.90
2022-12-24T17:29:45.579Z,9.50
2022-12-24T17:32:47.149Z,9.70
2022-12-24T17:35:49.337Z,9.60
2022-12-24T17:38:50.885Z,10.00
2022-12-24T17:41:52.441Z,9.80
2022-12-24T17:44:53.986Z,9.50
2022-12-24T17:47:55.526Z,9.80
2022-12-24T17:50:57.261Z,11.70
2022-12-24T17:53:59.642Z,9.70
2022-12-24T17:57:01.680Z,9.50
2022-12-24T18:00:04.051Z,9.90
2022-12-24T18:03:05.950Z,8.50
2022-12-24T18:06:09.280Z,9.60
2022-12-24T18:09:10.823Z,10.00
2022-12-24T18:12:13.676Z,9.70
2022-12-24T18:15:19.126Z,9.40
2022-12-24T18:18:20.959Z,9.20
2022-12-24T18:21:24.940Z,9.70
2022-12-24T18:24:26.576Z,9.50
2022-12-24T18:27:28.112Z,9.70
2022-12-24T18:30:29.640Z,11.10
2022-12-24T18:33:33.341Z,9.70
2022-12-24T18:36:35.610Z,9.40
2022-12-24T18:39:37.226Z,9.80
2022-12-24T18:42:41.083Z,9.70
2022-12-24T18:45:46.574Z,9.70
2022-12-24T18:48:48.443Z,9.40
2022-12-24T18:51:50.022Z,9.90
2022-12-24T18:54:51.973Z,9.70
2022-12-24T18:57:53.600Z,9.50
2022-12-24T19:00:55.461Z,9.50
2022-12-24T19:03:57.486Z,9.20
2022-12-24T19:07:00.320Z,9.50
2022-12-24T19:10:01.960Z,9.30
2022-12-24T19:13:03.862Z,9.50
2022-12-24T19:16:07.577Z,9.40
2022-12-24T19:19:11.195Z,9.50
2022-12-24T19:22:17.286Z,9.20
2022-12-24T19:25:18.913Z,11.70
2022-12-24T19:28:25.712Z,9.10
2022-12-24T19:31:27.680Z,9.00
2022-12-24T19:34:29.353Z,8.80
2022-12-24T19:37:31.248Z,10.60
2022-12-24T19:40:36.564Z,9.80
2022-12-24T19:43:41.106Z,11.70
2022-12-24T19:46:42.698Z,9.40
2022-12-24T19:49:44.284Z,9.60
2022-12-24T19:52:46.025Z,9.50
2022-12-24T19:55:47.547Z,9.70
2022-12-24T19:58:49.631Z,9.90
2022-12-24T20:01:53.564Z,9.50
2022-12-24T20:04:55.451Z,9.60
2022-12-24T20:07:57.126Z,11.00
2022-12-24T20:10:58.769Z,9.50
2022-12-24T20:14:02.306Z,9.20
2022-12-24T20:17:04.071Z,9.80
2022-12-24T20:20:06.375Z,9.60
2022-12-24T20:23:09.569Z,9.90
2022-12-24T20:26:13.723Z,9.60
2022-12-24T20:29:15.321Z,9.60
2022-12-24T20:32:16.927Z,9.70
2022-12-24T20:35:18.588Z,9.50
2022-12-24T20:38:20.219Z,10.00
2022-12-24T20:41:23.683Z,10.00
2022-12-24T20:44:25.264Z,9.80
2022-12-24T20:47:27.533Z,9.70
2022-12-24T20:50:29.086Z,9.80
2022-12-24T20:53:30.632Z,9.70
2022-12-24T20:56:32.332Z,9.70
2022-12-24T20:59:34.037Z,9.60
2022-12-24T21:02:36.126Z,9.60
2022-12-24T21:05:41.019Z,9.70
2022-12-24T21:08:42.770Z,9.60
2022-12-24T21:11:50.488Z,9.80
2022-12-24T21:14:52.142Z,9.90
2022-12-24T21:17:54.431Z,9.80
2022-12-24T21:20:55.999Z,10.00
2022-12-24T21:23:57.932Z,9.80
2022-12-24T21:26:59.495Z,9.80
2022-12-24T21:30:01.122Z,9.70
2022-12-24T21:33:02.686Z,10.10
2022-12-24T21:36:04.456Z,9.90
2022-12-24T21:39:06.110Z,9.50
2022-12-24T21:42:07.746Z,10.30
2022-12-24T21:45:10.422Z,9.80
2022-12-24T21:48:31.964Z,10.10
2022-12-24T21:51:33.569Z,10.30
2022-12-24T21:54:35.150Z,10.20
2022-12-24T21:57:54.891Z,10.10
2022-12-24T22:00:56.529Z,10.20
2022-12-24T22:03:58.099Z,9.80
2022-12-24T22:07:19.356Z,9.90
2022-12-24T22:10:39.694Z,9.50
2022-12-24T22:13:41.239Z,9.80
2022-12-24T22:16:43.093Z,9.70
2022-12-24T22:19:44.735Z,9.90
2022-12-24T22:22:47.942Z,9.90
2022-12-24T22:25:49.483Z,10.00
2022-12-24T22:28:51.008Z,9.70
2022-12-24T22:31:52.638Z,10.10
2022-12-24T22:34:54.204Z,9.70
2022-12-24T22:37:59.869Z,9.90
2022-12-24T22:41:07.987Z,9.10
2022-12-24T22:44:10.204Z,9.80
2022-12-24T22:47:11.741Z,9.80
2022-12-24T22:50:13.406Z,9.70
2022-12-24T22:53:14.974Z,9.70
2022-12-24T22:56:19.867Z,9.60
2022-12-24T22:59:21.484Z,9.60
2022-12-24T23:02:28.168Z,9.90
2022-12-24T23:05:30.501Z,9.40
2022-12-24T23:08:34.941Z,9.60
2022-12-24T23:11:36.628Z,9.50
2022-12-24T23:14:56.476Z,11.40
2022-12-24T23:17:58.176Z,9.40
2022-12-24T23:21:05.720Z,9.40
2022-12-24T23:24:08.945Z,9.10
2022-12-24T23:27:10.544Z,9.30
2022-12-24T23:30:12.457Z,9.40
2022-12-24T23:33:14.013Z,9.40
2022-12-24T23:36:16.012Z,9.80
2022-12-24T23:39:17.671Z,9.70
2022-12-24T23:42:19.221Z,10.00
2022-12-24T23:45:20.767Z,9.50
2022-12-24T23:48:23.594Z,9.70
2022-12-24T23:51:27.822Z,9.70
2022-12-24T23:54:29.496Z,9.80
2022-12-24T23:57:31.450Z,9.40
